createdAt,value
2016-07-01T00:00:07.367Z,0
2016-07-01T00:01:06.164Z,0
2016-07-01T00:02:07.976Z,0
2016-07-01T00:03:07.358Z,0
2016-07-01T00:04:07.335Z,0
2016-07-01T00:05:07.316Z,0
2016-07-01T00:06:07.317Z,0
2016-07-01T00:07:06.069Z,0
2016-07-01T00:08:06.721Z,0
2016-07-01T00:09:07.880Z,0
2016-07-01T00:10:06.443Z,0
2016-07-01T00:11:06.629Z,0
2016-07-01T00:12:07.224Z,0
2016-07-01T00:13:07.267Z,0
2016-07-01T00:14:06.593Z,0
2016-07-01T00:15:06.601Z,0
2016-07-01T00:16:06.598Z,0
2016-07-01T00:17:06.574Z,0
2016-07-01T00:18:07.164Z,0
2016-07-01T00:19:06.537Z,0
2016-07-01T00:20:07.147Z,0
2016-07-01T00:21:07.119Z,0
2016-07-01T00:22:06.503Z,0
2016-07-01T00:23:05.882Z,0
2016-07-01T00:24:06.494Z,0
2016-07-01T00:25:07.068Z,0
2016-07-01T00:26:07.067Z,0
2016-07-01T00:27:07.662Z,0
2016-07-01T00:28:07.052Z,0
2016-07-01T00:29:05.790Z,0
2016-07-01T00:30:05.794Z,0
2016-07-01T00:31:07.001Z,0
2016-07-01T00:32:08.247Z,0
2016-07-01T00:33:07.599Z,0
2016-07-01T00:34:07.591Z,0
2016-07-01T00:35:05.751Z,0
2016-07-01T00:36:06.321Z,0
2016-07-01T00:37:07.586Z,0
2016-07-01T00:38:06.971Z,0
2016-07-01T00:39:08.157Z,0
2016-07-01T00:40:06.883Z,0
2016-07-01T00:41:07.498Z,0
2016-07-01T00:42:06.882Z,0
2016-07-01T00:43:06.856Z,0
2016-07-01T00:44:06.861Z,0
2016-07-01T00:45:07.444Z,0
2016-07-01T00:46:06.193Z,0
2016-07-01T00:47:06.190Z,0
2016-07-01T00:48:06.822Z,0
2016-07-01T00:49:06.178Z,0
2016-07-01T00:50:06.854Z,0
2016-07-01T00:51:06.152Z,0
2016-07-01T00:52:07.361Z,0
2016-07-01T00:53:07.957Z,0
2016-07-01T00:54:07.359Z,0
2016-07-01T00:55:06.712Z,0
2016-07-01T00:56:07.317Z,0
2016-07-01T00:57:06.123Z,0
2016-07-01T00:58:06.082Z,0
2016-07-01T00:59:05.477Z,0
2016-07-01T01:00:06.047Z,0
2016-07-01T01:01:07.948Z,0
2016-07-01T01:02:06.053Z,0
2016-07-01T01:03:06.039Z,0
2016-07-01T01:04:05.990Z,0
2016-07-01T01:05:07.224Z,0
2016-07-01T01:06:07.830Z,0
2016-07-01T01:07:06.594Z,0
2016-07-01T01:08:06.569Z,0
2016-07-01T01:09:07.194Z,0
2016-07-01T01:10:06.582Z,0
2016-07-01T01:11:06.549Z,0
2016-07-01T01:12:07.120Z,0
2016-07-01T01:13:06.513Z,0
2016-07-01T01:14:07.757Z,0
2016-07-01T01:15:06.501Z,0
2016-07-01T01:16:07.088Z,0
2016-07-01T01:17:07.053Z,0
2016-07-01T01:18:05.864Z,0
2016-07-01T01:19:06.435Z,0
2016-07-01T01:20:07.027Z,0
2016-07-01T01:21:07.043Z,0
2016-07-01T01:22:05.775Z,0
2016-07-01T01:23:06.378Z,0
2016-07-01T01:24:05.147Z,0
2016-07-01T01:25:06.383Z,0
2016-07-01T01:26:05.128Z,0
2016-07-01T01:27:05.748Z,0
2016-07-01T01:28:07.549Z,0
2016-07-01T01:29:06.922Z,0
2016-07-01T01:30:06.339Z,0
2016-07-01T01:31:06.289Z,0
2016-07-01T01:32:06.894Z,0
2016-07-01T01:33:06.883Z,0
2016-07-01T01:34:06.259Z,0
2016-07-01T01:35:06.236Z,0
2016-07-01T01:36:05.601Z,0
2016-07-01T01:37:06.214Z,0
2016-07-01T01:38:06.194Z,0
2016-07-01T01:39:05.577Z,0
2016-07-01T01:40:05.565Z,0
2016-07-01T01:41:05.568Z,0
2016-07-01T01:42:06.167Z,0
2016-07-01T01:43:06.770Z,0
2016-07-01T01:44:06.765Z,0
2016-07-01T01:45:06.755Z,0
2016-07-01T01:46:06.730Z,0
2016-07-01T01:47:06.146Z,0
2016-07-01T01:48:06.118Z,0
2016-07-01T01:49:06.079Z,0
2016-07-01T01:50:05.460Z,0
2016-07-01T01:51:06.031Z,0
2016-07-01T01:52:06.648Z,0
2016-07-01T01:53:06.662Z,0
2016-07-01T01:54:07.270Z,0
2016-07-01T01:55:05.398Z,0
2016-07-01T01:56:05.422Z,0
2016-07-01T01:57:07.239Z,0
2016-07-01T01:58:05.968Z,0
2016-07-01T01:59:05.391Z,0
2016-07-01T02:00:06.582Z,0
2016-07-01T02:01:05.325Z,0
2016-07-01T02:02:05.315Z,0
2016-07-01T02:03:07.155Z,0
2016-07-01T02:04:06.512Z,0
2016-07-01T02:05:05.289Z,0
2016-07-01T02:06:05.872Z,0
2016-07-01T02:07:05.879Z,0
2016-07-01T02:08:05.251Z,0
2016-07-01T02:09:05.228Z,0
2016-07-01T02:10:06.848Z,0
2016-07-01T02:11:05.819Z,0
2016-07-01T02:12:05.830Z,0
2016-07-01T02:13:05.179Z,0
2016-07-01T02:14:05.798Z,0
2016-07-01T02:15:05.767Z,0
2016-07-01T02:16:05.769Z,0
2016-07-01T02:17:05.745Z,0
2016-07-01T02:18:04.516Z,0
2016-07-01T02:19:05.102Z,0
2016-07-01T02:20:06.969Z,0
2016-07-01T02:21:05.095Z,0
2016-07-01T02:22:06.316Z,0
2016-07-01T02:23:05.714Z,0
2016-07-01T02:24:05.690Z,0
2016-07-01T02:25:05.651Z,0
2016-07-01T02:26:05.047Z,0
2016-07-01T02:27:05.613Z,0
2016-07-01T02:28:05.041Z,0
2016-07-01T02:29:06.244Z,0
2016-07-01T02:31:06.882Z,0
2016-07-01T02:32:06.873Z,0
2016-07-01T02:33:05.574Z,0
2016-07-01T02:34:05.537Z,0
2016-07-01T02:35:05.555Z,0
2016-07-01T02:36:04.979Z,0
2016-07-01T02:37:04.892Z,0
2016-07-01T02:38:05.570Z,0
2016-07-01T02:39:05.499Z,0
2016-07-01T02:40:04.879Z,0
2016-07-01T02:41:04.862Z,0
2016-07-01T02:42:04.874Z,0
2016-07-01T02:43:05.451Z,0
2016-07-01T02:44:06.057Z,0
2016-07-01T02:45:05.440Z,0
2016-07-01T02:46:05.419Z,0
2016-07-01T02:47:06.038Z,0
2016-07-01T02:48:04.801Z,0
2016-07-01T02:49:05.374Z,0
2016-07-01T02:50:05.357Z,0
2016-07-01T02:51:04.734Z,0
2016-07-01T02:52:05.988Z,0
2016-07-01T02:53:05.966Z,0
2016-07-01T02:54:05.359Z,0
2016-07-01T02:55:04.082Z,0
2016-07-01T02:56:05.919Z,0
2016-07-01T02:57:05.884Z,0
2016-07-01T02:58:05.252Z,0
2016-07-01T02:59:05.850Z,0
2016-07-01T03:00:05.879Z,0
2016-07-01T03:01:04.641Z,0
2016-07-01T03:02:05.817Z,0
2016-07-01T03:03:04.604Z,0
2016-07-01T03:04:04.590Z,0
2016-07-01T03:05:03.980Z,0
2016-07-01T03:06:05.408Z,0
2016-07-01T03:07:06.422Z,0
2016-07-01T03:08:05.771Z,0
2016-07-01T03:09:04.561Z,0
2016-07-01T03:10:04.526Z,0
2016-07-01T03:11:05.118Z,0
2016-07-01T03:12:05.123Z,0
2016-07-01T03:13:04.500Z,0
2016-07-01T03:14:06.332Z,0
2016-07-01T03:15:04.473Z,0
2016-07-01T03:16:06.340Z,0
2016-07-01T03:17:05.090Z,0
2016-07-01T03:18:06.263Z,0
2016-07-01T03:19:05.036Z,0
2016-07-01T03:20:05.669Z,0
2016-07-01T03:21:03.799Z,0
2016-07-01T03:22:05.023Z,0
2016-07-01T03:23:04.382Z,5
2016-07-01T03:24:04.374Z,5
2016-07-01T03:25:04.963Z,5
2016-07-01T03:26:06.195Z,5
2016-07-01T03:27:04.960Z,5
2016-07-01T03:28:04.317Z,5
2016-07-01T03:29:06.152Z,5
2016-07-01T03:30:04.292Z,5
2016-07-01T03:31:04.880Z,5
2016-07-01T03:32:05.487Z,5
2016-07-01T03:33:04.256Z,5
2016-07-01T03:34:05.492Z,5
2016-07-01T03:35:04.848Z,5
2016-07-01T03:36:03.631Z,5
2016-07-01T03:37:04.199Z,5
2016-07-01T03:38:04.216Z,5
2016-07-01T03:39:04.861Z,5
2016-07-01T03:40:04.844Z,5
2016-07-01T03:41:04.786Z,10
2016-07-01T03:42:04.779Z,10
2016-07-01T03:43:04.161Z,10
2016-07-01T03:44:04.746Z,10
2016-07-01T03:45:04.724Z,10
2016-07-01T03:46:03.484Z,10
2016-07-01T03:47:04.690Z,10
2016-07-01T03:48:04.692Z,10
2016-07-01T03:49:04.065Z,10
2016-07-01T03:50:05.265Z,10
2016-07-01T03:51:04.047Z,15
2016-07-01T03:52:04.017Z,15
2016-07-01T03:53:04.677Z,15
2016-07-01T03:54:04.631Z,15
2016-07-01T03:55:05.215Z,15
2016-07-01T03:56:04.620Z,20
2016-07-01T03:57:04.624Z,20
2016-07-01T03:58:05.247Z,20
2016-07-01T03:59:04.596Z,20
2016-07-01T04:00:05.799Z,20
2016-07-01T04:01:05.175Z,20
2016-07-01T04:02:03.925Z,25
2016-07-01T04:03:03.893Z,25
2016-07-01T04:04:03.901Z,25
2016-07-01T04:05:04.503Z,25
2016-07-01T04:06:05.097Z,25
2016-07-01T04:07:04.488Z,25
2016-07-01T04:08:03.871Z,25
2016-07-01T04:09:03.227Z,25
2016-07-01T04:10:05.660Z,30
2016-07-01T04:11:04.413Z,30
2016-07-01T04:12:05.050Z,30
2016-07-01T04:13:03.800Z,35
2016-07-01T04:14:04.397Z,35
2016-07-01T04:15:03.141Z,35
2016-07-01T04:16:04.385Z,35
2016-07-01T04:17:05.643Z,35
2016-07-01T04:18:04.365Z,35
2016-07-01T04:19:03.741Z,35
2016-07-01T04:20:04.946Z,35
2016-07-01T04:21:03.716Z,35
2016-07-01T04:22:04.911Z,35
2016-07-01T04:23:04.280Z,35
2016-07-01T04:24:05.520Z,40
2016-07-01T04:25:03.074Z,40
2016-07-01T04:26:03.660Z,35
2016-07-01T04:27:04.838Z,35
2016-07-01T04:28:04.221Z,35
2016-07-01T04:29:04.843Z,35
2016-07-01T04:30:04.230Z,35
2016-07-01T04:31:04.244Z,35
2016-07-01T04:32:05.401Z,35
2016-07-01T04:33:04.798Z,35
2016-07-01T04:34:03.560Z,35
2016-07-01T04:35:04.756Z,35
2016-07-01T04:36:04.154Z,35
2016-07-01T04:37:05.354Z,40
2016-07-01T04:38:03.493Z,40
2016-07-01T04:39:04.137Z,40
2016-07-01T04:40:03.484Z,40
2016-07-01T04:41:03.469Z,40
2016-07-01T04:42:03.453Z,40
2016-07-01T04:43:04.076Z,40
2016-07-01T04:44:04.648Z,40
2016-07-01T04:45:04.043Z,40
2016-07-01T04:46:04.651Z,45
2016-07-01T04:47:04.615Z,45
2016-07-01T04:48:04.022Z,45
2016-07-01T04:49:04.606Z,50
2016-07-01T04:50:03.989Z,50
2016-07-01T04:51:03.988Z,55
2016-07-01T04:52:04.569Z,55
2016-07-01T04:53:03.952Z,50
2016-07-01T04:54:04.549Z,50
2016-07-01T04:55:03.925Z,50
2016-07-01T04:56:02.686Z,55
2016-07-01T04:57:03.948Z,60
2016-07-01T04:58:03.920Z,60
2016-07-01T04:59:04.487Z,55
2016-07-01T05:00:05.114Z,55
2016-07-01T05:01:02.632Z,60
2016-07-01T05:02:04.466Z,65
2016-07-01T05:03:04.454Z,65
2016-07-01T05:04:03.835Z,65
2016-07-01T05:05:04.450Z,65
2016-07-01T05:06:03.822Z,65
2016-07-01T05:07:04.413Z,60
2016-07-01T05:08:03.179Z,60
2016-07-01T05:09:03.770Z,65
2016-07-01T05:10:04.386Z,70
2016-07-01T05:11:04.351Z,65
2016-07-01T05:12:03.746Z,65
2016-07-01T05:13:03.132Z,70
2016-07-01T05:14:04.332Z,75
2016-07-01T05:15:03.107Z,80
2016-07-01T05:16:03.077Z,75
2016-07-01T05:17:03.694Z,70
2016-07-01T05:18:04.275Z,60
2016-07-01T05:19:03.257Z,50
2016-07-01T05:20:03.656Z,50
2016-07-01T05:21:02.470Z,45
2016-07-01T05:22:03.616Z,45
2016-07-01T05:23:04.459Z,45
2016-07-01T05:24:04.223Z,45
2016-07-01T05:25:02.998Z,45
2016-07-01T05:26:02.956Z,40
2016-07-01T05:27:03.562Z,35
2016-07-01T05:28:02.328Z,40
2016-07-01T05:29:03.554Z,40
2016-07-01T05:30:02.295Z,40
2016-07-01T05:31:02.936Z,40
2016-07-01T05:32:02.910Z,45
2016-07-01T05:33:04.132Z,45
2016-07-01T05:34:03.481Z,45
2016-07-01T05:35:02.906Z,45
2016-07-01T05:36:04.093Z,45
2016-07-01T05:37:04.084Z,45
2016-07-01T05:38:02.851Z,50
2016-07-01T05:39:03.455Z,55
2016-07-01T05:40:03.429Z,55
2016-07-01T05:41:04.030Z,55
2016-07-01T05:42:04.024Z,55
2016-07-01T05:43:02.786Z,50
2016-07-01T05:44:02.173Z,55
2016-07-01T05:45:03.992Z,60
2016-07-01T05:46:03.982Z,65
2016-07-01T05:47:03.973Z,70
2016-07-01T05:48:02.121Z,75
2016-07-01T05:49:03.350Z,80
2016-07-01T05:50:03.333Z,80
2016-07-01T05:51:03.924Z,80
2016-07-01T05:52:03.931Z,80
2016-07-01T05:53:03.330Z,80
2016-07-01T05:54:02.695Z,75
2016-07-01T05:55:03.279Z,80
2016-07-01T05:56:03.258Z,80
2016-07-01T05:57:02.633Z,75
2016-07-01T05:58:03.831Z,75
2016-07-01T05:59:03.211Z,75
2016-07-01T06:00:03.248Z,75
2016-07-01T06:01:02.599Z,80
2016-07-01T06:02:03.808Z,80
2016-07-01T06:03:04.427Z,80
2016-07-01T06:04:03.171Z,85
2016-07-01T06:05:03.173Z,90
2016-07-01T06:06:03.820Z,95
2016-07-01T06:07:03.174Z,95
2016-07-01T06:08:03.132Z,95
2016-07-01T06:09:02.489Z,95
2016-07-01T06:10:02.901Z,85
2016-07-01T06:11:03.135Z,75
2016-07-01T06:12:03.101Z,70
2016-07-01T06:13:03.101Z,70
2016-07-01T06:14:03.677Z,75
2016-07-01T06:15:03.665Z,85
2016-07-01T06:16:03.326Z,90
2016-07-01T06:17:04.291Z,110
2016-07-01T06:18:03.693Z,120
2016-07-01T06:19:03.637Z,105
2016-07-01T06:20:01.770Z,95
2016-07-01T06:21:03.624Z,90
2016-07-01T06:22:03.599Z,100
2016-07-01T06:23:04.263Z,110
2016-07-01T06:24:02.965Z,100
2016-07-01T06:25:02.947Z,80
2016-07-01T06:26:02.960Z,75
2016-07-01T06:27:02.986Z,75
2016-07-01T06:28:02.295Z,65
2016-07-01T06:29:03.559Z,70
2016-07-01T06:30:02.914Z,75
2016-07-01T06:31:03.495Z,70
2016-07-01T06:32:04.153Z,75
2016-07-01T06:33:03.481Z,80
2016-07-01T06:34:03.484Z,85
2016-07-01T06:35:03.470Z,85
2016-07-01T06:36:01.634Z,90
2016-07-01T06:37:02.840Z,100
2016-07-01T06:38:02.221Z,110
2016-07-01T06:39:02.206Z,125
2016-07-01T06:40:03.413Z,125
2016-07-01T06:41:02.235Z,110
2016-07-01T06:42:03.407Z,110
2016-07-01T06:43:02.757Z,125
2016-07-01T06:44:01.552Z,135
2016-07-01T06:45:02.135Z,140
2016-07-01T06:46:02.741Z,135
2016-07-01T06:47:02.726Z,125
2016-07-01T06:48:02.115Z,115
2016-07-01T06:49:02.738Z,100
2016-07-01T06:50:02.102Z,85
2016-07-01T06:51:02.103Z,65
2016-07-01T06:52:01.459Z,75
2016-07-01T06:53:03.274Z,95
2016-07-01T06:54:03.914Z,90
2016-07-01T06:55:03.470Z,85
2016-07-01T06:56:02.063Z,80
2016-07-01T06:57:02.631Z,65
2016-07-01T06:58:02.617Z,65
2016-07-01T06:59:03.213Z,75
2016-07-01T07:00:01.388Z,90
2016-07-01T07:01:03.802Z,105
2016-07-01T07:02:02.557Z,105
2016-07-01T07:03:02.553Z,120
2016-07-01T07:04:03.146Z,130
2016-07-01T07:05:02.553Z,125
2016-07-01T07:06:02.000Z,110
2016-07-01T07:07:01.912Z,125
2016-07-01T07:08:02.510Z,150
2016-07-01T07:09:03.125Z,150
2016-07-01T07:10:03.123Z,170
2016-07-01T07:11:01.856Z,185
2016-07-01T07:12:01.850Z,180
2016-07-01T07:13:01.855Z,160
2016-07-01T07:14:03.699Z,120
2016-07-01T07:15:03.041Z,115
2016-07-01T07:16:01.204Z,120
2016-07-01T07:17:03.021Z,125
2016-07-01T07:18:03.102Z,145
2016-07-01T07:19:01.785Z,130
2016-07-01T07:20:03.023Z,130
2016-07-01T07:21:02.407Z,110
2016-07-01T07:22:02.371Z,100
2016-07-01T07:23:01.729Z,75
2016-07-01T07:24:01.763Z,80
2016-07-01T07:25:03.563Z,95
2016-07-01T07:26:02.343Z,105
2016-07-01T07:27:02.964Z,135
2016-07-01T07:28:01.724Z,155
2016-07-01T07:29:02.895Z,170
2016-07-01T07:30:02.305Z,150
2016-07-01T07:31:02.295Z,125
2016-07-01T07:32:02.871Z,135
2016-07-01T07:33:03.504Z,150
2016-07-01T07:34:02.254Z,185
2016-07-01T07:35:01.002Z,205
2016-07-01T07:36:02.247Z,190
2016-07-01T07:37:02.226Z,225
2016-07-01T07:38:02.823Z,235
2016-07-01T07:39:02.214Z,205
2016-07-01T07:40:02.822Z,230
2016-07-01T07:41:02.187Z,225
2016-07-01T07:42:02.194Z,225
2016-07-01T07:43:02.809Z,230
2016-07-01T07:44:01.557Z,240
2016-07-01T07:45:02.175Z,255
2016-07-01T07:46:01.531Z,255
2016-07-01T07:47:02.121Z,235
2016-07-01T07:48:01.508Z,225
2016-07-01T07:49:02.738Z,215
2016-07-01T07:50:02.328Z,220
2016-07-01T07:51:02.691Z,235
2016-07-01T07:52:02.702Z,230
2016-07-01T07:53:02.693Z,225
2016-07-01T07:54:02.648Z,220
2016-07-01T07:55:01.447Z,200
2016-07-01T07:56:02.098Z,190
2016-07-01T07:57:02.655Z,210
2016-07-01T07:58:02.032Z,215
2016-07-01T07:59:02.613Z,210
2016-07-01T08:00:02.603Z,205
2016-07-01T08:01:01.373Z,215
2016-07-01T08:02:02.608Z,225
2016-07-01T08:03:01.951Z,225
2016-07-01T08:04:02.046Z,230
2016-07-01T08:05:01.378Z,225
2016-07-01T08:06:01.941Z,235
2016-07-01T08:07:02.560Z,245
2016-07-01T08:08:02.596Z,260
2016-07-01T08:09:01.940Z,275
2016-07-01T08:10:01.526Z,290
2016-07-01T08:11:01.308Z,320
2016-07-01T08:12:01.895Z,325
2016-07-01T08:13:02.501Z,300
2016-07-01T08:14:01.893Z,255
2016-07-01T08:15:01.873Z,320
2016-07-01T08:16:01.888Z,375
2016-07-01T08:17:03.055Z,425
2016-07-01T08:18:01.238Z,525
2016-07-01T08:19:02.441Z,365
2016-07-01T08:20:01.821Z,595
2016-07-01T08:21:00.606Z,445
2016-07-01T08:22:02.583Z,510
2016-07-01T08:23:02.418Z,445
2016-07-01T08:24:02.415Z,445
2016-07-01T08:25:01.782Z,555
2016-07-01T08:26:01.151Z,625
2016-07-01T08:27:01.769Z,370
2016-07-01T08:28:01.746Z,295
2016-07-01T08:29:01.118Z,375
2016-07-01T08:30:02.958Z,360
2016-07-01T08:31:01.113Z,340
2016-07-01T08:32:02.339Z,355
2016-07-01T08:33:01.687Z,400
2016-07-01T08:34:02.299Z,330
2016-07-01T08:35:01.690Z,345
2016-07-01T08:36:01.689Z,365
2016-07-01T08:37:01.688Z,470
2016-07-01T08:38:00.515Z,355
2016-07-01T08:39:01.083Z,330
2016-07-01T08:40:01.657Z,300
2016-07-01T08:41:01.645Z,290
2016-07-01T08:42:01.643Z,305
2016-07-01T08:43:01.663Z,310
2016-07-01T08:44:01.634Z,305
2016-07-01T08:45:01.633Z,295
2016-07-01T08:46:01.017Z,320
2016-07-01T08:47:01.629Z,325
2016-07-01T08:48:01.594Z,335
2016-07-01T08:49:00.403Z,310
2016-07-01T08:50:00.959Z,315
2016-07-01T08:51:02.497Z,300
2016-07-01T08:52:02.216Z,305
2016-07-01T08:53:01.578Z,320
2016-07-01T08:54:01.555Z,325
2016-07-01T08:55:02.973Z,315
2016-07-01T08:56:02.148Z,320
2016-07-01T08:57:02.150Z,340
2016-07-01T08:58:02.129Z,350
2016-07-01T08:59:01.521Z,380
2016-07-01T09:00:01.509Z,630
2016-07-01T09:01:02.187Z,545
2016-07-01T09:02:02.097Z,785
2016-07-01T09:03:01.484Z,735
2016-07-01T09:04:02.099Z,845
2016-07-01T09:05:00.834Z,590
2016-07-01T09:06:02.078Z,430
2016-07-01T09:07:01.442Z,465
2016-07-01T09:08:00.821Z,425
2016-07-01T09:09:00.804Z,400
2016-07-01T09:10:00.800Z,335
2016-07-01T09:11:00.795Z,315
2016-07-01T09:12:00.799Z,355
2016-07-01T09:13:01.398Z,390
2016-07-01T09:14:00.797Z,445
2016-07-01T09:15:00.783Z,435
2016-07-01T09:16:01.980Z,445
2016-07-01T09:17:00.755Z,435
2016-07-01T09:18:01.364Z,390
2016-07-01T09:19:00.760Z,320
2016-07-01T09:20:02.566Z,290
2016-07-01T09:21:00.716Z,345
2016-07-01T09:22:01.946Z,450
2016-07-01T09:23:01.929Z,450
2016-07-01T09:24:01.934Z,785
2016-07-01T09:25:01.942Z,965
2016-07-01T09:26:01.901Z,345
2016-07-01T09:27:00.695Z,295
2016-07-01T09:28:01.920Z,230
2016-07-01T09:29:01.909Z,250
2016-07-01T09:30:00.655Z,310
2016-07-01T09:31:01.246Z,245
2016-07-01T09:32:01.860Z,230
2016-07-01T09:33:00.673Z,355
2016-07-01T09:34:01.250Z,365
2016-07-01T09:35:01.227Z,455
2016-07-01T09:36:02.443Z,625
2016-07-01T09:37:01.832Z,550
2016-07-01T09:38:01.230Z,715
2016-07-01T09:39:01.189Z,560
2016-07-01T09:40:01.195Z,720
2016-07-01T09:41:01.184Z,435
2016-07-01T09:42:01.812Z,400
2016-07-01T09:43:01.797Z,320
2016-07-01T09:44:00.536Z,510
2016-07-01T09:45:01.204Z,570
2016-07-01T09:46:00.548Z,470
2016-07-01T09:47:01.154Z,420
2016-07-01T09:48:01.756Z,340
2016-07-01T09:49:01.120Z,410
2016-07-01T09:50:01.123Z,475
2016-07-01T09:51:02.318Z,305
2016-07-01T09:52:01.713Z,190
2016-07-01T09:53:01.097Z,160
2016-07-01T09:54:01.095Z,345
2016-07-01T09:55:01.080Z,200
2016-07-01T09:56:00.460Z,150
2016-07-01T09:57:01.678Z,190
2016-07-01T09:58:01.099Z,135
2016-07-01T09:59:02.275Z,230
2016-07-01T10:00:01.040Z,410
2016-07-01T10:01:01.017Z,345
2016-07-01T10:02:01.043Z,135
2016-07-01T10:03:02.247Z,90
2016-07-01T10:03:59.789Z,75
2016-07-01T10:05:00.403Z,90
2016-07-01T10:06:00.399Z,85
2016-07-01T10:07:00.998Z,135
2016-07-01T10:08:00.987Z,395
2016-07-01T10:09:01.605Z,505
2016-07-01T10:10:00.966Z,1020
2016-07-01T10:11:01.137Z,790
2016-07-01T10:12:00.943Z,445
2016-07-01T10:13:01.556Z,275
2016-07-01T10:14:01.558Z,210
2016-07-01T10:15:01.570Z,150
2016-07-01T10:16:00.296Z,145
2016-07-01T10:17:00.915Z,155
2016-07-01T10:18:00.891Z,165
2016-07-01T10:19:00.313Z,170
2016-07-01T10:20:01.504Z,235
2016-07-01T10:21:00.241Z,205
2016-07-01T10:22:01.496Z,145
2016-07-01T10:23:00.255Z,170
2016-07-01T10:24:00.228Z,210
2016-07-01T10:25:00.874Z,225
2016-07-01T10:26:00.217Z,250
2016-07-01T10:27:00.823Z,290
2016-07-01T10:28:00.205Z,360
2016-07-01T10:29:00.171Z,370
2016-07-01T10:30:01.418Z,375
2016-07-01T10:31:00.794Z,385
2016-07-01T10:32:00.773Z,395
2016-07-01T10:33:01.995Z,420
2016-07-01T10:34:00.770Z,430
2016-07-01T10:35:02.010Z,445
2016-07-01T10:36:01.990Z,500
2016-07-01T10:37:00.759Z,590
2016-07-01T10:38:00.147Z,625
2016-07-01T10:39:00.736Z,580
2016-07-01T10:40:01.359Z,590
2016-07-01T10:41:00.084Z,550
2016-07-01T10:42:00.716Z,625
2016-07-01T10:43:00.083Z,660
2016-07-01T10:44:00.077Z,645
2016-07-01T10:45:00.069Z,795
2016-07-01T10:46:00.654Z,740
2016-07-01T10:46:59.438Z,695
2016-07-01T10:48:00.670Z,680
2016-07-01T10:49:01.878Z,1110
2016-07-01T10:50:00.044Z,865
2016-07-01T10:51:00.618Z,560
2016-07-01T10:52:01.235Z,605
2016-07-01T10:53:00.641Z,640
2016-07-01T10:53:59.391Z,580
2016-07-01T10:55:00.605Z,490
2016-07-01T10:56:00.590Z,595
2016-07-01T10:56:59.991Z,515
2016-07-01T10:58:00.568Z,490
2016-07-01T10:59:01.189Z,575
2016-07-01T10:59:59.953Z,515
2016-07-01T11:01:00.628Z,495
2016-07-01T11:02:00.600Z,480
2016-07-01T11:03:01.762Z,425
2016-07-01T11:04:01.170Z,390
2016-07-01T11:05:01.167Z,340
2016-07-01T11:05:59.913Z,530
2016-07-01T11:06:59.901Z,645
2016-07-01T11:08:00.531Z,465
2016-07-01T11:09:00.523Z,320
2016-07-01T11:10:00.497Z,415
2016-07-01T11:11:00.494Z,480
2016-07-01T11:12:00.474Z,450
2016-07-01T11:13:01.142Z,415
2016-07-01T11:14:00.454Z,440
2016-07-01T11:15:01.709Z,450
2016-07-01T11:16:01.067Z,510
2016-07-01T11:17:00.450Z,650
2016-07-01T11:18:00.425Z,935
2016-07-01T11:19:00.450Z,410
2016-07-01T11:20:01.654Z,245
2016-07-01T11:21:01.028Z,260
2016-07-01T11:21:59.830Z,280
2016-07-01T11:23:00.415Z,220
2016-07-01T11:23:59.791Z,215
2016-07-01T11:25:00.057Z,260
2016-07-01T11:26:01.038Z,250
2016-07-01T11:27:00.386Z,240
2016-07-01T11:28:00.976Z,170
2016-07-01T11:29:00.974Z,120
2016-07-01T11:30:00.353Z,80
2016-07-01T11:31:00.359Z,70
2016-07-01T11:32:00.327Z,65
2016-07-01T11:33:00.311Z,65
2016-07-01T11:34:00.928Z,80
2016-07-01T11:35:00.909Z,135
2016-07-01T11:35:59.697Z,190
2016-07-01T11:36:59.671Z,165
2016-07-01T11:38:00.327Z,155
2016-07-01T11:38:59.677Z,160
2016-07-01T11:40:00.923Z,155
2016-07-01T11:41:00.307Z,175
2016-07-01T11:41:59.641Z,250
2016-07-01T11:43:00.232Z,360
2016-07-01T11:44:00.259Z,460
2016-07-01T11:45:00.842Z,450
2016-07-01T11:46:00.242Z,335
2016-07-01T11:47:01.441Z,260
2016-07-01T11:48:00.213Z,180
2016-07-01T11:49:00.231Z,225
2016-07-01T11:50:01.419Z,240
2016-07-01T11:51:00.177Z,240
2016-07-01T11:52:00.206Z,205
2016-07-01T11:52:59.581Z,215
2016-07-01T11:54:00.826Z,245
2016-07-01T11:55:00.791Z,195
2016-07-01T11:56:00.757Z,185
2016-07-01T11:57:01.960Z,250
2016-07-01T11:58:00.147Z,330
2016-07-01T11:59:00.125Z,265
2016-07-01T12:00:00.106Z,210
2016-07-01T12:01:01.339Z,190
2016-07-01T12:02:00.123Z,180
2016-07-01T12:03:00.731Z,175
2016-07-01T12:04:01.316Z,165
2016-07-01T12:05:00.687Z,150
2016-07-01T12:06:00.657Z,145
2016-07-01T12:07:00.055Z,155
2016-07-01T12:08:00.038Z,170
2016-07-01T12:08:59.437Z,150
2016-07-01T12:09:59.451Z,150
2016-07-01T12:11:00.858Z,160
2016-07-01T12:12:00.011Z,175
2016-07-01T12:12:59.441Z,190
2016-07-01T12:14:00.630Z,170
2016-07-01T12:15:01.225Z,155
2016-07-01T12:15:59.973Z,150
2016-07-01T12:17:01.243Z,135
2016-07-01T12:17:59.368Z,135
2016-07-01T12:19:00.579Z,155
2016-07-01T12:20:00.562Z,180
2016-07-01T12:21:00.555Z,205
2016-07-01T12:21:59.918Z,255
2016-07-01T12:22:59.918Z,350
2016-07-01T12:24:01.137Z,535
2016-07-01T12:24:59.892Z,690
2016-07-01T12:25:59.342Z,1715
2016-07-01T12:26:59.352Z,465
2016-07-01T12:28:01.079Z,405
2016-07-01T12:28:59.945Z,405
2016-07-01T12:30:01.089Z,405
2016-07-01T12:30:59.243Z,365
2016-07-01T12:32:01.077Z,355
2016-07-01T12:32:59.849Z,340
2016-07-01T12:34:00.450Z,370
2016-07-01T12:34:59.248Z,515
2016-07-01T12:36:01.043Z,465
2016-07-01T12:36:59.803Z,670
2016-07-01T12:37:59.781Z,835
2016-07-01T12:39:00.383Z,500
2016-07-01T12:40:00.399Z,415
2016-07-01T12:40:59.767Z,330
2016-07-01T12:41:59.766Z,380
2016-07-01T12:42:59.745Z,430
2016-07-01T12:43:59.756Z,430
2016-07-01T12:45:00.368Z,430
2016-07-01T12:45:59.750Z,350
2016-07-01T12:46:59.718Z,270
2016-07-01T12:48:00.315Z,190
2016-07-01T12:48:58.481Z,145
2016-07-01T12:49:59.710Z,150
2016-07-01T12:51:00.370Z,160
2016-07-01T12:51:59.671Z,150
2016-07-01T12:53:00.316Z,145
2016-07-01T12:54:00.327Z,135
2016-07-01T12:54:59.698Z,135
2016-07-01T12:56:00.892Z,140
2016-07-01T12:56:59.015Z,145
2016-07-01T12:57:59.634Z,135
2016-07-01T12:59:00.929Z,125
2016-07-01T12:59:59.627Z,125
2016-07-01T13:01:00.249Z,125
2016-07-01T13:02:00.839Z,125
2016-07-01T13:02:59.602Z,135
2016-07-01T13:03:58.984Z,155
2016-07-01T13:05:00.189Z,200
2016-07-01T13:05:58.982Z,235
2016-07-01T13:06:59.569Z,265
2016-07-01T13:07:59.545Z,310
2016-07-01T13:08:59.518Z,370
2016-07-01T13:09:58.264Z,380
2016-07-01T13:10:58.251Z,340
2016-07-01T13:11:58.857Z,275
2016-07-01T13:13:00.098Z,280
2016-07-01T13:13:58.228Z,260
2016-07-01T13:14:58.819Z,240
2016-07-01T13:15:58.815Z,275
2016-07-01T13:16:59.424Z,190
2016-07-01T13:17:59.428Z,145
2016-07-01T13:18:58.800Z,200
2016-07-01T13:19:58.790Z,260
2016-07-01T13:20:59.390Z,215
2016-07-01T13:21:58.788Z,195
2016-07-01T13:22:59.367Z,265
2016-07-01T13:23:58.746Z,250
2016-07-01T13:24:58.777Z,250
2016-07-01T13:25:58.736Z,245
2016-07-01T13:26:59.343Z,225
2016-07-01T13:27:58.108Z,175
2016-07-01T13:28:58.726Z,185
2016-07-01T13:29:58.083Z,240
2016-07-01T13:30:59.307Z,385
2016-07-01T13:31:59.923Z,205
2016-07-01T13:32:58.063Z,135
2016-07-01T13:33:59.290Z,135
2016-07-01T13:34:58.670Z,145
2016-07-01T13:35:59.282Z,140
2016-07-01T13:36:58.652Z,130
2016-07-01T13:37:58.642Z,120
2016-07-01T13:38:58.613Z,95
2016-07-01T13:39:58.599Z,85
2016-07-01T13:40:59.214Z,85
2016-07-01T13:41:57.983Z,95
2016-07-01T13:42:58.630Z,125
2016-07-01T13:43:59.186Z,170
2016-07-01T13:44:58.580Z,175
2016-07-01T13:45:58.571Z,200
2016-07-01T13:46:58.568Z,240
2016-07-01T13:47:59.168Z,315
2016-07-01T13:48:59.759Z,500
2016-07-01T13:49:58.531Z,655
2016-07-01T13:50:59.146Z,885
2016-07-01T13:51:57.902Z,970
2016-07-01T13:52:57.891Z,830
2016-07-01T13:53:57.880Z,770
2016-07-01T13:54:58.496Z,905
2016-07-01T13:55:59.105Z,780
2016-07-01T13:56:57.860Z,520
2016-07-01T13:57:58.463Z,450
2016-07-01T13:58:58.451Z,310
2016-07-01T13:59:59.692Z,280
2016-07-01T14:00:58.457Z,255
2016-07-01T14:01:59.056Z,225
2016-07-01T14:02:58.426Z,220
2016-07-01T14:03:58.420Z,205
2016-07-01T14:04:59.028Z,190
2016-07-01T14:05:58.411Z,160
2016-07-01T14:06:59.014Z,140
2016-07-01T14:07:58.395Z,170